Time;durP1;ratioP1;P1;durP2;ratioP2;P2;SDS_P1;SDS_P2;PMS_P1;PMS_P2;Temp;Humidity;BMP_temperature;BMP_pressure;BME280_temperature;BME280_humidity;BME280_pressure;Samples;Min_cycle;Max_cycle;Signal;HPM_P1;HPM_P2
2021/10/29 00:00:43;;;;;;;35.65;16.50;;;;;;;;;;5071277;28;20025;-65
2021/10/29 00:03:08;;;;;;;46.97;19.90;;;;;;;;;;5070975;28;20119;-67
2021/10/29 00:05:34;;;;;;;42.35;16.27;;;;;;;;;;5071121;28;20016;-66
2021/10/29 00:07:59;;;;;;;40.10;16.13;;;;;;;;;;5071147;28;20016;-66
2021/10/29 00:10:25;;;;;;;33.45;15.63;;;;;;;;;;5070680;28;20017;-67
2021/10/29 00:12:51;;;;;;;35.17;17.77;;;;;;;;;;5070749;28;20060;-66
2021/10/29 00:15:16;;;;;;;36.38;17.75;;;;;;;;;;5070890;28;20020;-66
2021/10/29 00:17:42;;;;;;;35.00;15.93;;;;;;;;;;5071018;28;20525;-67
2021/10/29 00:20:07;;;;;;;42.83;18.42;;;;;;;;;;5070777;28;20440;-66
2021/10/29 00:22:32;;;;;;;35.47;17.33;;;;;;;;;;5070785;28;20708;-66
2021/10/29 00:24:58;;;;;;;32.72;14.77;;;;;;;;;;5070905;28;20397;-66
2021/10/29 00:27:23;;;;;;;33.28;15.60;;;;;;;;;;5070969;28;20054;-66
2021/10/29 00:29:48;;;;;;;38.75;15.75;;;;;;;;;;5069913;28;20065;-66
2021/10/29 00:32:14;;;;;;;22.08;9.52;;;;;;;;;;5070460;28;20409;-66
2021/10/29 00:34:39;;;;;;;29.42;13.32;;;;;;;;;;5070758;28;20025;-67
2021/10/29 00:37:04;;;;;;;27.33;11.73;;;;;;;;;;5052821;28;20024;-66
2021/10/29 00:39:29;;;;;;;34.15;14.65;;;;;;;;;;5071467;28;20496;-66
2021/10/29 00:41:55;;;;;;;23.40;9.15;;;;;;;;;;5070314;28;20016;-67
2021/10/29 00:44:21;;;;;;;30.52;10.65;;;;;;;;;;5070942;28;20012;-66
2021/10/29 00:46:46;;;;;;;19.80;8.68;;;;;;;;;;5070672;28;20027;-66
2021/10/29 00:49:11;;;;;;;29.53;12.63;;;;;;;;;;5071466;28;20016;-64
2021/10/29 00:51:36;;;;;;;37.33;14.32;;;;;;;;;;5070600;28;20259;-66
2021/10/29 00:54:01;;;;;;;22.60;10.27;;;;;;;;;;5087320;28;20115;-65
2021/10/29 00:56:27;;;;;;;36.00;14.85;;;;;;;;;;5085766;28;20021;-64
2021/10/29 00:58:52;;;;;;;18.42;9.00;;;;;;;;;;5070407;28;20016;-65
2021/10/29 01:01:17;;;;;;;27.70;11.48;;;;;;;;;;5070330;28;20124;-65
2021/10/29 01:03:42;;;;;;;26.67;11.07;;;;;;;;;;5084567;28;20135;-65
2021/10/29 01:06:08;;;;;;;40.70;16.10;;;;;;;;;;5089905;28;20383;-65
2021/10/29 01:08:35;;;;;;;34.30;13.82;;;;;;;;;;5073899;28;20020;-66
2021/10/29 01:11:00;;;;;;;22.10;10.02;;;;;;;;;;5070226;28;20540;-64
2021/10/29 01:13:27;;;;;;;17.35;8.07;;;;;;;;;;5068737;28;20032;-64
2021/10/29 01:15:52;;;;;;;21.10;8.02;;;;;;;;;;5070179;28;20017;-65
2021/10/29 01:18:18;;;;;;;27.95;11.75;;;;;;;;;;5072308;28;20024;-65
2021/10/29 01:20:43;;;;;;;37.50;14.00;;;;;;;;;;5090380;28;20019;-65
2021/10/29 01:23:08;;;;;;;23.13;9.67;;;;;;;;;;5082181;28;20028;-65
2021/10/29 01:25:33;;;;;;;29.27;13.68;;;;;;;;;;5074549;28;20771;-65
2021/10/29 01:27:58;;;;;;;39.88;15.07;;;;;;;;;;5074305;28;20033;-65
2021/10/29 01:30:24;;;;;;;32.17;14.02;;;;;;;;;;5075282;28;20075;-66
2021/10/29 01:32:49;;;;;;;27.17;10.77;;;;;;;;;;5073820;28;20128;-64
2021/10/29 01:35:15;;;;;;;29.20;12.48;;;;;;;;;;5083464;28;20491;-65
2021/10/29 01:37:40;;;;;;;32.75;13.88;;;;;;;;;;5094405;28;20078;-67
2021/10/29 01:40:07;;;;;;;30.98;14.02;;;;;;;;;;5076234;28;20752;-65
2021/10/29 01:42:33;;;;;;;28.65;11.57;;;;;;;;;;5074721;28;20066;-64
2021/10/29 01:44:58;;;;;;;23.58;9.65;;;;;;;;;;5077775;28;20036;-65
2021/10/29 01:47:23;;;;;;;35.92;14.98;;;;;;;;;;5073857;28;20020;-66
2021/10/29 01:49:49;;;;;;;22.55;8.45;;;;;;;;;;5074839;28;20652;-65
2021/10/29 01:52:14;;;;;;;22.80;8.98;;;;;;;;;;5073531;28;20024;-66
2021/10/29 01:54:39;;;;;;;37.72;13.63;;;;;;;;;;5074506;28;20020;-65
2021/10/29 01:57:04;;;;;;;34.67;14.35;;;;;;;;;;5093906;28;20601;-65
2021/10/29 01:59:30;;;;;;;30.67;13.45;;;;;;;;;;5083580;28;20092;-65
2021/10/29 02:01:55;;;;;;;33.47;14.50;;;;;;;;;;5073148;28;20028;-66
2021/10/29 02:04:21;;;;;;;27.05;12.70;;;;;;;;;;5073545;28;20508;-65
2021/10/29 02:06:46;;;;;;;30.58;13.02;;;;;;;;;;5091313;28;20028;-65
2021/10/29 02:09:12;;;;;;;34.10;15.15;;;;;;;;;;5086040;28;20021;-65
2021/10/29 02:11:37;;;;;;;33.25;15.10;;;;;;;;;;5073612;28;20024;-65
2021/10/29 02:14:03;;;;;;;39.00;16.35;;;;;;;;;;5069938;28;20032;-65
2021/10/29 02:16:28;;;;;;;40.63;16.20;;;;;;;;;;5088352;28;20012;-66
2021/10/29 02:18:53;;;;;;;28.55;11.88;;;;;;;;;;5079075;28;20048;-65
2021/10/29 02:21:18;;;;;;;32.88;14.65;;;;;;;;;;5066260;28;20051;-65
2021/10/29 02:23:44;;;;;;;38.50;16.17;;;;;;;;;;5089243;28;20407;-65
2021/10/29 02:26:09;;;;;;;34.20;13.00;;;;;;;;;;5079351;28;20042;-64
2021/10/29 02:28:34;;;;;;;36.60;15.13;;;;;;;;;;5072900;28;20510;-65
2021/10/29 02:30:59;;;;;;;38.92;15.52;;;;;;;;;;5085904;28;20036;-65
2021/10/29 02:33:25;;;;;;;41.50;16.70;;;;;;;;;;5073464;28;20113;-65
2021/10/29 02:35:50;;;;;;;33.90;15.15;;;;;;;;;;5082015;28;20059;-67
2021/10/29 02:38:16;;;;;;;39.78;16.02;;;;;;;;;;5073018;28;20016;-67
2021/10/29 02:40:41;;;;;;;33.47;16.02;;;;;;;;;;5072244;28;20021;-66
2021/10/29 02:43:07;;;;;;;32.13;14.98;;;;;;;;;;5072757;28;20523;-67
2021/10/29 02:45:32;;;;;;;32.65;13.55;;;;;;;;;;5073704;28;20016;-66
2021/10/29 02:47:57;;;;;;;32.15;15.00;;;;;;;;;;5072680;28;20103;-68
2021/10/29 02:50:23;;;;;;;32.38;13.88;;;;;;;;;;5072383;28;20029;-66
2021/10/29 02:52:49;;;;;;;34.90;13.40;;;;;;;;;;5072427;28;20062;-67
2021/10/29 02:55:14;;;;;;;33.55;14.10;;;;;;;;;;5090865;28;20408;-67
2021/10/29 02:57:41;;;;;;;32.60;15.05;;;;;;;;;;5092952;28;20027;-64
2021/10/29 03:00:07;;;;;;;31.38;14.00;;;;;;;;;;5078004;28;20024;-64
2021/10/29 03:02:33;;;;;;;35.28;14.65;;;;;;;;;;5072316;28;20099;-64
2021/10/29 03:04:59;;;;;;;30.25;13.35;;;;;;;;;;5087712;28;20532;-65
2021/10/29 03:07:25;;;;;;;17.42;7.35;;;;;;;;;;5092531;28;20028;-66
2021/10/29 03:09:50;;;;;;;25.00;8.88;;;;;;;;;;5080605;28;20028;-65
2021/10/29 03:12:15;;;;;;;18.33;5.73;;;;;;;;;;5087821;28;20078;-66
2021/10/29 03:14:40;;;;;;;20.58;8.13;;;;;;;;;;5087632;28;20285;-66
2021/10/29 03:17:05;;;;;;;23.20;9.20;;;;;;;;;;5078356;28;20087;-65
2021/10/29 03:19:31;;;;;;;23.47;7.93;;;;;;;;;;5080605;28;20278;-66
2021/10/29 03:21:56;;;;;;;18.83;8.40;;;;;;;;;;5083859;28;20357;-65
2021/10/29 03:24:21;;;;;;;18.43;7.77;;;;;;;;;;5084893;28;20745;-67
2021/10/29 03:26:46;;;;;;;27.55;10.15;;;;;;;;;;5075339;28;20263;-66
2021/10/29 03:29:11;;;;;;;27.53;12.13;;;;;;;;;;5083248;22;20040;-69
2021/10/29 03:31:37;;;;;;;22.27;10.57;;;;;;;;;;5045261;28;20352;-69
2021/10/29 03:34:02;;;;;;;18.35;8.00;;;;;;;;;;5050924;28;20469;-69
2021/10/29 03:36:27;;;;;;;24.07;8.63;;;;;;;;;;5062079;28;20497;-69
2021/10/29 03:38:59;;;;;;;22.00;8.73;;;;;;;;;;5065748;28;20279;-68
2021/10/29 03:41:27;;;;;;;16.02;7.65;;;;;;;;;;5051719;28;20299;-69
2021/10/29 03:43:56;;;;;;;21.40;8.38;;;;;;;;;;5050982;28;20067;-69
2021/10/29 03:46:24;;;;;;;16.00;5.22;;;;;;;;;;5050731;28;20079;-69
2021/10/29 03:51:37;;;;;;;23.63;11.18;;;;;;;;;;5051026;28;20116;-69
2021/10/29 03:56:40;;;;;;;21.92;10.50;;;;;;;;;;5050415;28;20025;-69
2021/10/29 03:59:06;;;;;;;19.55;9.18;;;;;;;;;;5032267;28;20025;-69
2021/10/29 04:01:31;;;;;;;19.67;6.82;;;;;;;;;;5050488;28;20159;-69
2021/10/29 04:03:56;;;;;;;20.42;6.85;;;;;;;;;;5049522;28;20017;-69
2021/10/29 04:06:22;;;;;;;18.83;7.17;;;;;;;;;;5051229;28;20531;-68
2021/10/29 04:08:47;;;;;;;31.98;12.90;;;;;;;;;;5050536;28;20267;-69
2021/10/29 04:11:12;;;;;;;24.75;8.57;;;;;;;;;;5050979;28;20130;-69
2021/10/29 04:13:39;;;;;;;27.33;11.05;;;;;;;;;;5049690;28;20028;-69
2021/10/29 04:16:05;;;;;;;14.10;7.50;;;;;;;;;;5050806;28;20373;-69
2021/10/29 04:18:32;;;;;;;20.38;8.88;;;;;;;;;;5050355;28;20021;-69
2021/10/29 04:20:57;;;;;;;19.23;8.25;;;;;;;;;;5050584;28;20025;-69
2021/10/29 04:23:22;;;;;;;20.67;7.35;;;;;;;;;;5050032;28;20031;-69
2021/10/29 04:25:47;;;;;;;12.13;5.60;;;;;;;;;;5049597;28;20063;-69
2021/10/29 04:28:13;;;;;;;25.38;10.60;;;;;;;;;;5050268;28;20041;-68
2021/10/29 04:30:38;;;;;;;19.85;8.40;;;;;;;;;;5050661;28;20036;-69
2021/10/29 04:33:07;;;;;;;17.33;8.75;;;;;;;;;;5049971;28;20025;-68
2021/10/29 04:35:33;;;;;;;19.35;8.45;;;;;;;;;;5049805;28;20071;-69
2021/10/29 04:37:58;;;;;;;23.52;11.15;;;;;;;;;;5049921;28;20063;-69
2021/10/29 04:40:24;;;;;;;24.45;9.00;;;;;;;;;;5050508;28;20013;-69
2021/10/29 04:42:49;;;;;;;18.65;7.55;;;;;;;;;;5048735;28;20028;-68
2021/10/29 04:45:15;;;;;;;18.33;7.85;;;;;;;;;;5050104;28;20056;-69
2021/10/29 04:47:40;;;;;;;23.83;8.93;;;;;;;;;;5050017;28;20071;-69
2021/10/29 04:50:06;;;;;;;23.10;8.85;;;;;;;;;;5050581;28;20025;-68
2021/10/29 04:52:31;;;;;;;18.20;9.75;;;;;;;;;;5049657;28;20425;-68
2021/10/29 04:54:56;;;;;;;18.73;8.02;;;;;;;;;;5050031;28;20354;-68
2021/10/29 04:57:22;;;;;;;24.73;6.35;;;;;;;;;;5049426;28;20024;-68
2021/10/29 04:59:47;;;;;;;17.63;6.50;;;;;;;;;;5050089;28;20024;-69
2021/10/29 05:02:12;;;;;;;17.23;7.60;;;;;;;;;;5049547;28;20027;-69
2021/10/29 05:04:38;;;;;;;20.95;8.50;;;;;;;;;;5048472;28;20048;-69
2021/10/29 05:07:03;;;;;;;13.73;5.03;;;;;;;;;;5047079;28;20027;-70
2021/10/29 05:09:28;;;;;;;24.73;9.43;;;;;;;;;;5048687;28;20064;-69
2021/10/29 05:11:54;;;;;;;29.42;8.77;;;;;;;;;;5048691;28;20370;-69
2021/10/29 05:14:19;;;;;;;29.55;7.15;;;;;;;;;;5048067;28;20363;-70
2021/10/29 05:16:44;;;;;;;17.43;8.67;;;;;;;;;;5048225;28;20029;-67
2021/10/29 05:19:09;;;;;;;19.25;8.05;;;;;;;;;;5045526;28;20264;-67
2021/10/29 05:21:35;;;;;;;20.33;8.35;;;;;;;;;;5048166;28;20115;-67
2021/10/29 05:24:00;;;;;;;14.80;7.13;;;;;;;;;;5048869;28;20492;-69
2021/10/29 05:26:25;;;;;;;17.97;8.37;;;;;;;;;;5042053;28;20333;-70
2021/10/29 05:28:50;;;;;;;23.45;11.07;;;;;;;;;;5044521;28;20275;-70
2021/10/29 05:31:15;;;;;;;18.02;6.47;;;;;;;;;;5046481;28;20021;-69
2021/10/29 05:33:41;;;;;;;21.52;9.30;;;;;;;;;;5044508;28;20025;-69
2021/10/29 05:36:07;;;;;;;18.70;8.05;;;;;;;;;;5046446;28;20385;-70
2021/10/29 05:38:32;;;;;;;19.08;9.27;;;;;;;;;;5046487;28;20090;-69
2021/10/29 05:41:00;;;;;;;16.60;7.35;;;;;;;;;;5046254;28;20025;-70
2021/10/29 05:43:26;;;;;;;23.83;8.13;;;;;;;;;;5045568;28;20032;-70
2021/10/29 05:45:51;;;;;;;15.07;7.75;;;;;;;;;;5039842;28;20017;-69
2021/10/29 05:48:16;;;;;;;21.05;6.63;;;;;;;;;;5042661;28;20021;-69
2021/10/29 05:50:48;;;;;;;29.08;8.73;;;;;;;;;;5040057;28;20048;-70
2021/10/29 05:53:20;;;;;;;16.70;6.10;;;;;;;;;;5046504;28;20012;-70
2021/10/29 05:55:45;;;;;;;19.55;8.63;;;;;;;;;;5045780;28;20021;-69
2021/10/29 05:58:11;;;;;;;21.45;9.65;;;;;;;;;;5046263;28;20070;-69
2021/10/29 06:00:36;;;;;;;21.57;9.30;;;;;;;;;;5045732;28;20032;-69
2021/10/29 06:03:05;;;;;;;23.67;10.15;;;;;;;;;;5038964;28;20628;-69
2021/10/29 06:05:32;;;;;;;17.38;8.38;;;;;;;;;;5039238;28;20017;-68
2021/10/29 06:07:57;;;;;;;30.70;12.05;;;;;;;;;;5036100;28;20477;-69
2021/10/29 06:10:22;;;;;;;25.02;8.13;;;;;;;;;;5051341;28;20051;-69
2021/10/29 06:12:47;;;;;;;33.90;11.02;;;;;;;;;;5018357;28;20013;-69
2021/10/29 06:15:15;;;;;;;22.08;7.43;;;;;;;;;;5037796;28;20473;-69
2021/10/29 06:17:40;;;;;;;17.40;6.25;;;;;;;;;;5044609;28;20036;-69
2021/10/29 06:20:06;;;;;;;15.32;6.70;;;;;;;;;;5021543;28;20112;-69
2021/10/29 06:22:35;;;;;;;17.60;7.57;;;;;;;;;;5047024;28;20057;-69
2021/10/29 06:25:08;;;;;;;13.27;5.50;;;;;;;;;;5050319;28;20028;-69
2021/10/29 06:30:03;;;;;;;30.65;9.07;;;;;;;;;;5043046;28;20574;-69
2021/10/29 06:32:28;;;;;;;18.50;8.48;;;;;;;;;;5015000;28;20065;-69
2021/10/29 06:34:53;;;;;;;20.02;9.38;;;;;;;;;;5050202;28;20118;-69
2021/10/29 06:37:18;;;;;;;15.48;7.05;;;;;;;;;;5052872;28;20067;-69
2021/10/29 06:39:46;;;;;;;13.07;5.57;;;;;;;;;;5051121;28;20017;-69
2021/10/29 06:42:16;;;;;;;12.68;5.32;;;;;;;;;;5051609;28;20436;-69
2021/10/29 06:45:24;;;;;;;28.58;10.93;;;;;;;;;;5046476;28;20107;-69
2021/10/29 06:47:37;;;;;;;26.05;8.60;;;;;;;;;;5047450;28;20486;-69
2021/10/29 07:40:38;;;;;;;18.67;6.30;;;;;;;;;;5050791;28;20027;-70
2021/10/29 07:43:05;;;;;;;22.00;8.70;;;;;;;;;;5049533;28;20009;-72
2021/10/29 07:45:30;;;;;;;25.25;9.00;;;;;;;;;;5050965;28;20056;-70
2021/10/29 07:47:56;;;;;;;31.55;10.70;;;;;;;;;;5051277;28;20052;-70
2021/10/29 07:50:22;;;;;;;33.95;11.80;;;;;;;;;;5051741;28;20017;-73
2021/10/29 07:52:49;;;;;;;22.75;10.00;;;;;;;;;;5050226;28;20497;-69
2021/10/29 07:55:16;;;;;;;27.23;9.10;;;;;;;;;;5050446;28;20074;-69
2021/10/29 07:57:42;;;;;;;24.35;9.82;;;;;;;;;;5050869;28;20029;-69
2021/10/29 08:00:08;;;;;;;17.92;7.35;;;;;;;;;;5050634;28;20048;-69
2021/10/29 08:02:33;;;;;;;10.23;5.68;;;;;;;;;;5050309;28;20029;-70
2021/10/29 08:04:59;;;;;;;14.68;6.50;;;;;;;;;;5050800;28;20028;-70
2021/10/29 08:07:25;;;;;;;22.60;9.48;;;;;;;;;;5050101;28;20017;-70
2021/10/29 08:09:51;;;;;;;17.75;8.00;;;;;;;;;;5050902;28;20338;-69
2021/10/29 08:12:16;;;;;;;14.50;6.45;;;;;;;;;;5047141;28;20017;-69
2021/10/29 08:14:44;;;;;;;18.27;6.15;;;;;;;;;;5043980;28;20044;-70
2021/10/29 08:17:09;;;;;;;19.25;8.73;;;;;;;;;;5050282;28;20478;-70
2021/10/29 08:19:35;;;;;;;19.55;7.93;;;;;;;;;;5050459;28;20049;-70
2021/10/29 08:22:00;;;;;;;22.10;9.05;;;;;;;;;;5050337;28;20462;-70
2021/10/29 08:24:26;;;;;;;18.40;9.48;;;;;;;;;;5049711;28;20036;-70
2021/10/29 08:26:52;;;;;;;14.45;5.50;;;;;;;;;;5050601;28;20035;-70
2021/10/29 08:29:18;;;;;;;27.45;9.82;;;;;;;;;;5050060;28;20024;-70
2021/10/29 08:31:43;;;;;;;15.40;6.13;;;;;;;;;;5050448;28;20385;-70
2021/10/29 08:34:08;;;;;;;15.07;5.88;;;;;;;;;;5049775;28;20021;-70
2021/10/29 08:36:37;;;;;;;18.75;7.45;;;;;;;;;;5050407;28;20466;-70
2021/10/29 08:39:02;;;;;;;15.80;5.63;;;;;;;;;;5050768;28;20382;-70
2021/10/29 08:41:28;;;;;;;24.55;9.48;;;;;;;;;;5049848;28;20025;-70
2021/10/29 08:43:54;;;;;;;23.67;10.18;;;;;;;;;;5049897;28;20020;-69
2021/10/29 08:46:19;;;;;;;13.38;6.88;;;;;;;;;;5050009;28;20094;-69
2021/10/29 08:48:45;;;;;;;32.90;9.35;;;;;;;;;;5049068;28;20131;-69
2021/10/29 08:51:11;;;;;;;21.35;8.63;;;;;;;;;;5050179;28;20036;-70
2021/10/29 08:53:37;;;;;;;16.67;7.15;;;;;;;;;;5049753;28;20437;-70
2021/10/29 08:56:05;;;;;;;20.92;9.40;;;;;;;;;;5049459;28;20024;-70
2021/10/29 08:58:34;;;;;;;13.77;7.60;;;;;;;;;;5042112;28;20056;-72
2021/10/29 09:01:07;;;;;;;15.23;6.38;;;;;;;;;;5040962;28;20021;-72
2021/10/29 09:03:42;;;;;;;17.48;7.63;;;;;;;;;;5037259;28;20531;-68
2021/10/29 09:09:02;;;;;;;23.42;10.35;;;;;;;;;;5050228;28;20550;-70
2021/10/29 09:33:48;;;;;;;16.30;8.70;;;;;;;;;;5043273;28;20025;-64
2021/10/29 09:36:28;;;;;;;10.77;5.00;;;;;;;;;;5049577;28;20025;-66
2021/10/29 09:38:57;;;;;;;12.45;5.03;;;;;;;;;;5050187;28;20048;-65
2021/10/29 09:41:23;;;;;;;19.92;9.35;;;;;;;;;;5049366;28;20021;-66
2021/10/29 09:43:54;;;;;;;15.70;7.95;;;;;;;;;;5048956;28;20024;-66
2021/10/29 09:46:35;;;;;;;10.85;5.18;;;;;;;;;;5052430;28;20021;-67
2021/10/29 09:49:09;;;;;;;8.50;4.88;;;;;;;;;;5053025;28;20035;-63
2021/10/29 09:51:47;;;;;;;15.63;6.75;;;;;;;;;;5052646;28;20477;-63
2021/10/29 09:54:15;;;;;;;21.63;6.75;;;;;;;;;;5052529;28;20029;-65
2021/10/29 09:56:53;;;;;;;16.63;7.28;;;;;;;;;;5052706;28;20024;-65
2021/10/29 09:59:19;;;;;;;9.50;4.55;;;;;;;;;;5053000;28;20079;-65
2021/10/29 10:01:44;;;;;;;16.00;8.02;;;;;;;;;;5052826;28;20048;-65
2021/10/29 10:04:10;;;;;;;16.33;7.18;;;;;;;;;;5052502;28;20032;-66
2021/10/29 10:06:39;;;;;;;31.27;8.68;;;;;;;;;;5052851;28;20025;-66
2021/10/29 10:09:08;;;;;;;15.43;5.83;;;;;;;;;;5052986;28;20025;-66
2021/10/29 10:11:34;;;;;;;12.80;6.93;;;;;;;;;;5053049;28;20029;-66
2021/10/29 10:14:01;;;;;;;9.68;4.97;;;;;;;;;;5052517;28;20025;-65
2021/10/29 10:16:30;;;;;;;13.48;6.15;;;;;;;;;;5052945;28;20048;-65
2021/10/29 10:18:56;;;;;;;9.93;4.45;;;;;;;;;;5053012;28;20021;-66
2021/10/29 10:21:24;;;;;;;11.45;5.43;;;;;;;;;;5052807;28;20355;-65
2021/10/29 10:23:52;;;;;;;13.05;5.85;;;;;;;;;;5032859;28;20507;-65
2021/10/29 10:48:22;;;;;;;10.63;4.65;;;;;;;;;;5052139;28;20104;-65
2021/10/29 10:50:50;;;;;;;7.82;4.35;;;;;;;;;;5052296;28;20050;-65
2021/10/29 10:53:20;;;;;;;9.15;3.08;;;;;;;;;;5052006;28;20485;-66
2021/10/29 10:55:45;;;;;;;;;;;;;;;;;;5049488;28;20049;-66
2021/10/29 11:00:59;;;;;;;11.23;5.15;;;;;;;;;;5050505;28;20750;-65
2021/10/29 11:04:18;;;;;;;9.43;5.20;;;;;;;;;;5049235;28;20108;-64
2021/10/29 11:06:38;;;;;;;12.95;5.03;;;;;;;;;;5027618;28;20021;-66
2021/10/29 11:11:56;;;;;;;11.38;4.32;;;;;;;;;;5046900;28;20047;-65
2021/10/29 11:14:32;;;;;;;14.85;4.47;;;;;;;;;;5049517;28;20025;-65
2021/10/29 11:16:57;;;;;;;13.15;5.50;;;;;;;;;;5051980;28;20394;-65
2021/10/29 11:19:32;;;;;;;4.43;1.83;;;;;;;;;;5051369;28;20020;-66
2021/10/29 11:21:57;;;;;;;9.40;4.03;;;;;;;;;;5050618;28;20743;-66
2021/10/29 11:24:27;;;;;;;4.78;2.75;;;;;;;;;;5046903;28;20029;-65
2021/10/29 11:27:01;;;;;;;5.03;3.22;;;;;;;;;;5051249;28;20385;-66
2021/10/29 11:29:26;;;;;;;8.27;3.60;;;;;;;;;;5049989;28;20033;-66
2021/10/29 11:31:52;;;;;;;9.88;3.78;;;;;;;;;;5051475;28;20043;-65
2021/10/29 11:34:17;;;;;;;7.97;3.80;;;;;;;;;;5049891;28;20028;-65
2021/10/29 11:36:49;;;;;;;7.50;3.20;;;;;;;;;;5051251;28;20282;-65
2021/10/29 11:39:15;;;;;;;4.22;2.95;;;;;;;;;;5051562;28;20017;-66
2021/10/29 11:41:42;;;;;;;7.55;3.70;;;;;;;;;;5051118;28;20461;-65
2021/10/29 11:44:08;;;;;;;9.55;3.05;;;;;;;;;;5051224;28;20102;-66
2021/10/29 11:46:35;;;;;;;4.68;2.63;;;;;;;;;;5050631;28;20055;-64
2021/10/29 11:49:04;;;;;;;7.03;2.75;;;;;;;;;;5051516;28;20031;-64
2021/10/29 11:51:30;;;;;;;6.45;2.00;;;;;;;;;;5051129;28;20028;-64
2021/10/29 11:54:14;;;;;;;7.93;3.15;;;;;;;;;;5049308;28;20033;-66
2021/10/29 12:07:22;;;;;;;5.68;2.15;;;;;;;;;;5050433;28;20031;-64
2021/10/29 12:09:47;;;;;;;4.22;2.22;;;;;;;;;;5049737;28;20028;-65
2021/10/29 12:12:16;;;;;;;5.90;2.20;;;;;;;;;;5039405;28;20041;-65
2021/10/29 12:14:42;;;;;;;8.15;2.25;;;;;;;;;;5032529;28;20024;-65
2021/10/29 12:17:16;;;;;;;7.72;2.95;;;;;;;;;;5050910;28;20078;-65
2021/10/29 12:19:42;;;;;;;3.28;1.90;;;;;;;;;;5050509;28;20466;-65
2021/10/29 12:22:17;;;;;;;6.68;2.33;;;;;;;;;;5050176;28;20082;-66
2021/10/29 12:24:50;;;;;;;5.22;2.20;;;;;;;;;;5048167;28;20035;-64
2021/10/29 12:27:19;;;;;;;5.35;2.47;;;;;;;;;;5050060;28;20035;-64
2021/10/29 12:30:03;;;;;;;2.83;1.70;;;;;;;;;;5050281;28;20032;-64
2021/10/29 12:32:44;;;;;;;5.03;1.90;;;;;;;;;;5049731;28;20367;-64
2021/10/29 12:38:26;;;;;;;5.90;2.10;;;;;;;;;;5050382;28;20043;-64
2021/10/29 12:52:30;;;;;;;1.92;1.42;;;;;;;;;;5049921;28;20047;-65
2021/10/29 13:02:59;;;;;;;8.23;1.90;;;;;;;;;;5050276;28;20095;-64
2021/10/29 13:05:24;;;;;;;3.25;1.75;;;;;;;;;;5049202;28;20108;-65
2021/10/29 13:07:49;;;;;;;6.60;2.30;;;;;;;;;;5050023;28;20021;-65
2021/10/29 13:10:14;;;;;;;6.00;1.70;;;;;;;;;;5049421;28;20024;-65
2021/10/29 13:13:08;;;;;;;4.03;2.42;;;;;;;;;;5049771;28;20047;-64
2021/10/29 13:15:25;;;;;;;8.88;2.33;;;;;;;;;;5048135;28;20088;-64
2021/10/29 13:18:05;;;;;;;2.75;1.20;;;;;;;;;;5050437;28;20045;-68
2021/10/29 13:20:48;;;;;;;3.65;1.92;;;;;;;;;;5053749;28;20029;-64
2021/10/29 13:28:23;;;;;;;4.32;1.95;;;;;;;;;;5038032;28;20701;-65
2021/10/29 13:36:26;;;;;;;4.47;2.08;;;;;;;;;;5050532;28;20077;-66
2021/10/29 14:32:28;;;;;;;3.73;2.00;;;;;;;;;;5052058;28;20025;-67
2021/10/29 14:34:58;;;;;;;6.90;2.33;;;;;;;;;;5052447;28;20374;-65
2021/10/29 14:37:37;;;;;;;2.63;1.53;;;;;;;;;;5052370;28;20025;-68
2021/10/29 14:40:17;;;;;;;7.63;1.90;;;;;;;;;;5052088;28;20053;-66
2021/10/29 14:43:08;;;;;;;5.32;2.50;;;;;;;;;;5051958;28;20025;-67
2021/10/29 14:45:40;;;;;;;9.15;2.08;;;;;;;;;;5051653;28;20060;-67
2021/10/29 14:48:17;;;;;;;8.27;2.05;;;;;;;;;;5050334;28;20017;-67
2021/10/29 15:46:40;;;;;;;3.58;1.90;;;;;;;;;;5071265;28;20082;-69
2021/10/29 15:51:32;;;;;;;10.65;2.72;;;;;;;;;;5070110;28;20512;-67
2021/10/29 15:54:01;;;;;;;2.35;1.48;;;;;;;;;;5062858;28;20020;-68
2021/10/29 15:56:46;;;;;;;7.82;1.77;;;;;;;;;;5070990;28;20112;-71
2021/10/29 16:17:45;;;;;;;11.73;3.38;;;;;;;;;;5071180;28;20104;-68
2021/10/29 16:20:11;;;;;;;6.40;2.90;;;;;;;;;;5070304;28;20021;-70
2021/10/29 16:22:36;;;;;;;10.83;3.10;;;;;;;;;;5070243;28;20021;-70
2021/10/29 16:25:09;;;;;;;5.95;2.50;;;;;;;;;;5085183;28;20270;-71
2021/10/29 16:27:42;;;;;;;9.63;2.33;;;;;;;;;;5089090;28;20031;-71
2021/10/29 16:30:08;;;;;;;3.53;2.00;;;;;;;;;;5064589;28;20024;-71
2021/10/29 16:35:18;;;;;;;5.97;1.60;;;;;;;;;;5060268;28;20095;-70
2021/10/29 16:37:44;;;;;;;7.50;2.90;;;;;;;;;;5052240;28;20020;-70
2021/10/29 16:40:09;;;;;;;7.80;3.55;;;;;;;;;;5069274;28;20016;-71
2021/10/29 16:42:35;;;;;;;6.53;2.60;;;;;;;;;;5069826;28;20549;-70
2021/10/29 16:45:00;;;;;;;4.72;2.22;;;;;;;;;;5070411;28;20099;-70
2021/10/29 16:47:27;;;;;;;11.13;5.00;;;;;;;;;;5073126;28;20033;-70
2021/10/29 16:49:52;;;;;;;3.88;1.92;;;;;;;;;;5059152;28;20381;-70
2021/10/29 16:52:18;;;;;;;3.90;1.63;;;;;;;;;;5050790;28;20028;-70
2021/10/29 16:54:43;;;;;;;8.00;2.80;;;;;;;;;;5078356;28;20281;-70
2021/10/29 16:57:08;;;;;;;7.43;3.78;;;;;;;;;;5073204;28;20025;-71
2021/10/29 16:59:34;;;;;;;8.50;3.78;;;;;;;;;;5069902;28;20023;-71
2021/10/29 17:01:59;;;;;;;9.17;2.73;;;;;;;;;;5070087;28;20016;-71
2021/10/29 17:04:24;;;;;;;8.15;3.10;;;;;;;;;;5066680;28;20271;-70
2021/10/29 17:06:49;;;;;;;3.92;2.42;;;;;;;;;;5079360;28;20028;-71
2021/10/29 17:09:15;;;;;;;7.53;2.38;;;;;;;;;;5070140;28;20099;-71
2021/10/29 17:11:40;;;;;;;8.20;2.85;;;;;;;;;;5079855;28;20032;-71
2021/10/29 17:14:05;;;;;;;5.70;2.03;;;;;;;;;;5071735;28;20434;-71
2021/10/29 17:16:30;;;;;;;3.03;1.93;;;;;;;;;;5069669;28;20012;-71
2021/10/29 17:18:56;;;;;;;4.13;1.95;;;;;;;;;;5060364;28;20331;-72
2021/10/29 17:21:21;;;;;;;7.18;3.30;;;;;;;;;;5076994;28;20526;-70
2021/10/29 17:23:46;;;;;;;5.00;2.80;;;;;;;;;;5090004;28;20016;-70
2021/10/29 17:26:11;;;;;;;7.07;3.22;;;;;;;;;;5074698;28;20384;-70
2021/10/29 17:28:36;;;;;;;7.60;3.72;;;;;;;;;;5070176;28;20029;-70
2021/10/29 17:31:02;;;;;;;6.53;2.97;;;;;;;;;;5079195;28;20028;-70
2021/10/29 17:33:27;;;;;;;9.70;3.28;;;;;;;;;;5069344;28;20468;-70
2021/10/29 17:35:52;;;;;;;7.95;3.05;;;;;;;;;;5069268;28;20066;-70
2021/10/29 17:38:18;;;;;;;10.30;2.85;;;;;;;;;;5069259;28;20087;-71
2021/10/29 17:40:43;;;;;;;9.45;3.47;;;;;;;;;;5063647;28;20024;-71
2021/10/29 17:43:08;;;;;;;7.63;2.85;;;;;;;;;;5069551;28;20021;-72
2021/10/29 17:45:34;;;;;;;6.88;3.75;;;;;;;;;;5069574;28;20035;-70
2021/10/29 17:47:59;;;;;;;6.25;2.47;;;;;;;;;;5069573;28;20044;-71
2021/10/29 17:50:24;;;;;;;6.60;3.20;;;;;;;;;;5069078;28;20031;-70
2021/10/29 17:52:51;;;;;;;9.52;3.10;;;;;;;;;;5067433;28;20094;-71
2021/10/29 17:55:17;;;;;;;6.68;2.78;;;;;;;;;;5068959;28;20103;-71
2021/10/29 17:57:43;;;;;;;6.57;3.17;;;;;;;;;;5069812;28;20017;-70
2021/10/29 18:00:08;;;;;;;9.65;4.55;;;;;;;;;;5064348;28;20381;-71
2021/10/29 18:02:34;;;;;;;8.15;3.65;;;;;;;;;;5069048;28;20024;-70
2021/10/29 18:04:59;;;;;;;8.93;2.78;;;;;;;;;;5045753;28;20036;-70
2021/10/29 18:07:26;;;;;;;7.88;4.18;;;;;;;;;;5058791;28;20029;-70
2021/10/29 18:09:52;;;;;;;10.75;4.15;;;;;;;;;;5073671;28;20500;-70
2021/10/29 18:12:18;;;;;;;6.32;3.03;;;;;;;;;;5073436;28;20031;-70
2021/10/29 18:14:44;;;;;;;8.73;3.88;;;;;;;;;;5073621;28;20024;-70
2021/10/29 18:17:10;;;;;;;5.47;3.53;;;;;;;;;;5073574;28;20013;-70
2021/10/29 18:19:36;;;;;;;12.85;3.85;;;;;;;;;;5073348;28;20025;-70
2021/10/29 18:22:01;;;;;;;6.50;2.92;;;;;;;;;;5073555;28;20381;-70
2021/10/29 18:24:27;;;;;;;5.88;3.03;;;;;;;;;;5073730;28;20044;-70
2021/10/29 18:26:52;;;;;;;8.07;3.40;;;;;;;;;;5073286;28;20028;-70
2021/10/29 18:29:18;;;;;;;4.63;3.05;;;;;;;;;;5073189;28;20016;-70
2021/10/29 18:31:43;;;;;;;8.27;3.75;;;;;;;;;;5073199;28;20028;-70
2021/10/29 18:34:09;;;;;;;13.33;4.87;;;;;;;;;;5072713;28;20017;-70
2021/10/29 18:36:34;;;;;;;12.50;3.30;;;;;;;;;;5061822;28;20758;-70
2021/10/29 18:39:00;;;;;;;6.60;3.10;;;;;;;;;;5065513;28;20031;-70
2021/10/29 18:41:30;;;;;;;5.95;2.72;;;;;;;;;;5072831;28;20088;-70
2021/10/29 18:43:56;;;;;;;8.70;4.30;;;;;;;;;;5073494;28;20020;-70
2021/10/29 18:46:21;;;;;;;4.75;2.80;;;;;;;;;;5072802;28;20025;-70
2021/10/29 18:48:49;;;;;;;5.50;3.57;;;;;;;;;;5073097;28;20024;-70
2021/10/29 18:51:15;;;;;;;7.85;2.78;;;;;;;;;;5072746;28;20250;-70
2021/10/29 18:53:40;;;;;;;6.43;3.58;;;;;;;;;;5054851;28;20421;-70
2021/10/29 18:56:05;;;;;;;6.07;3.63;;;;;;;;;;5071472;28;20079;-71
2021/10/29 18:58:31;;;;;;;5.32;2.20;;;;;;;;;;5072365;28;20254;-71
2021/10/29 19:00:56;;;;;;;8.40;3.95;;;;;;;;;;5072243;28;20020;-70
2021/10/29 19:03:21;;;;;;;9.80;3.92;;;;;;;;;;5072099;28;20047;-71
2021/10/29 19:05:46;;;;;;;7.28;3.10;;;;;;;;;;5076754;28;20052;-70
2021/10/29 19:08:12;;;;;;;10.10;3.88;;;;;;;;;;5076531;28;20047;-70
2021/10/29 19:10:37;;;;;;;5.38;3.53;;;;;;;;;;5087654;28;20028;-70
2021/10/29 19:13:02;;;;;;;6.07;3.38;;;;;;;;;;5062375;28;20454;-70
2021/10/29 19:15:28;;;;;;;8.25;4.60;;;;;;;;;;5062468;28;20056;-70
2021/10/29 19:17:53;;;;;;;8.57;3.35;;;;;;;;;;5071120;28;20497;-71